Flight Track Log - Related Links

Times and Time Zones

All times are in EDT time to prevent confusion due to time zone crossing. See the QXE2196 flight status page for this flight to view local times or setup timezone preferences in your user account.

Time Position Orientation Groundspeed Altitude Reporting Facility
EDT Latitude Longitude Course Direction KTS MPH feet Rate Location/Type
Sat 12:23:00 PM 34.4073 -118.6503 335° Northwest  Level FlightAware Approximate
Sat 12:24:00 PM 34.4880 -118.6904 345° North  Level FlightAware Approximate
Sat 12:25:00 PM 34.5698 -118.7273 336° Northwest  Level FlightAware Approximate
Sat 12:26:00 PM 34.6497 -118.7702 336° Northwest  Level FlightAware Approximate
Sat 12:27:00 PM 34.7295 -118.8133 336° Northwest  Level FlightAware Approximate
Sat 12:28:00 PM 34.8104 -118.8534 345° North  Level FlightAware Approximate
Sat 12:29:00 PM 34.8947 -118.8816 345° North  Level FlightAware Approximate
Sat 12:30:00 PM 34.9746 -118.9189 347° North  Level FlightAware Approximate
Sat 12:31:00 PM 35.0597 -118.9432 347° North  Level FlightAware Approximate
Sat 12:32:00 PM 35.1448 -118.9675 347° North  Level FlightAware Approximate
Sat 12:33:00 PM 35.2295 -118.9937 344° North  Level FlightAware Approximate
Sat 12:34:00 PM 35.3135 -119.0233 344° North  Level FlightAware Approximate
Sat 12:35:00 PM 35.3975 -119.0529 344° North  Level FlightAware Approximate
Sat 12:36:00 PM 35.4814 -119.0827 344° North  Level FlightAware Approximate
Sat 12:37:00 PM 35.5681 -119.0704 North  Level FlightAware Approximate
Sat 12:38:00 PM 35.6548 -119.0571 North  Level FlightAware Approximate
Sat 12:39:00 PM 35.7415 -119.0438 North  Level FlightAware Approximate
Sat 12:40:00 PM 35.8282 -119.0305 North  Level FlightAware Approximate
Sat 12:41:00 PM 35.9149 -119.0171 North  Level FlightAware Approximate
Sat 12:42:00 PM 36.0019 -119.0037 North  Level FlightAware Approximate
Sat 12:43:00 PM 36.0889 -118.9902 North  Level FlightAware Approximate
Sat 12:44:00 PM 36.1759 -118.9766 North  Level FlightAware Approximate
Sat 12:45:00 PM 36.2642 -118.9625 North  Level FlightAware Approximate
Sat 12:46:00 PM 36.3526 -118.9484 North  Level FlightAware Approximate
Sat 12:47:00 PM 36.4409 -118.9343 North  Level FlightAware Approximate
Sat 12:48:00 PM 36.5292 -118.9202 North  Level FlightAware Approximate
Sat 12:49:00 PM 36.6175 -118.9060 North  Level FlightAware Approximate
Sat 12:50:00 PM 36.7059 -118.8917 North  Level FlightAware Approximate
Sat 12:51:00 PM 36.7942 -118.8775 North  Level FlightAware Approximate
Sat 12:52:00 PM 36.8806 -118.8635 North  Level FlightAware Approximate
Sat 12:53:00 PM 36.9513 -118.8521 North  Level FlightAware Approximate
Sat 12:54:00 PM 37.0220 -118.8406 North  Level FlightAware Approximate
Sat 12:55:00 PM 37.0927 -118.8285 North  Level FlightAware Approximate
Sat 12:56:00 PM 37.1810 -118.8120 North  Level FlightAware Approximate
Sat 12:57:00 PM 37.2692 -118.7954 North  Level FlightAware Approximate
Sat 12:58:00 PM 37.3578 -118.7833 North  Level FlightAware Approximate
Sat 12:59:00 PM 37.4451 -118.8029 346° North  Level FlightAware Approximate
Sat 01:00:00 PM 37.5320 -118.8305 346° North  Level FlightAware Approximate
Sat 01:01:00 PM 37.6189 -118.8582 346° North  Level FlightAware Approximate
Sat 01:02:00 PM 37.6241 -118.8388 346° North  Level Estimated
Sat 01:03:00 PM 37.6241 -118.8388 40° Northeast  Level Estimated
Sat 01:04:00 PM 37.6241 -118.8388 22° Northeast  Level Estimated
Sat 01:05:00 PM 37.6241 -118.8388 22° Northeast  Level Estimated
Sat 01:06:00 PM 37.6241 -118.8388 158° South  Level Estimated
Sat 01:07:00 PM 37.6241 -118.8388 64° Northeast  Level Estimated
Sat 01:08:00 PM 37.6241 -118.8388 64° Northeast  Level Estimated
Sat 01:09:00 PM 37.6241 -118.8388 157° South  Level Estimated
Sat 01:10:00 PM 37.6241 -118.8388 120° Southeast  Level Estimated
Sat 01:11:00 PM 37.6241 -118.8388 120° Southeast  Level Estimated
Sat 01:12:00 PM 37.6241 -118.8388 120° Southeast  Level Estimated
Sat 01:13:00 PM 37.6241 -118.8388 302° West  Level Estimated
Sat 01:14:00 PM 37.6241 -118.8388 124° Southeast  Level Estimated
Sat 01:15:00 PM 37.6241 -118.8388 302° West  Level Estimated
Sat 01:16:00 PM 37.6241 -118.8388 127° Southeast  Level Estimated

Login

Don't have an account? Register now (free) for customized features, flight alerts, and more!